Maersk Edward — OWVT2 — position and weather

sailwx.info

Track history (hours):
 
Tides and Currents Weather Stations Pressure Air Temp Water Temp Dewpoint Dewpoint Depression Visibility Wind Speed Wind Dir Waves Ship Positions

Maersk Edward

Last reported at 2017-Nov-19 08:16 UTC. Time now 2017-Nov-20 23:09 UTC.
Position N 52°46' E 003°51'.

Length 186 m; draft 6.6 m.

Type: Tanker. MMSI: 219571000.

Date/timePositionNaut miles runAvg speedWind from/ knotsBaromVisibWave heightAir tempDewpointWater temp
2017-Nov-19 08:16N 52°46' E 003°51'1 2.7
2017-Nov-19 07:58N 52°46' E 003°52'1 2.6
2017-Nov-19 07:29N 52°45' E 003°53'1 2.4
2017-Nov-19 06:58N 52°44' E 003°54'1 2.3
2017-Nov-19 06:29N 52°43' E 003°56'2 3.1
2017-Nov-19 06:00N 52°42' E 003°57'2 3.5
2017-Nov-19 05:30N 52°41' E 003°59'2 4.0
2017-Nov-19 05:00N 52°39' E 004°01'2 3.4
2017-Nov-19 04:30N 52°38' E 004°03'2 3.4
2017-Nov-19 04:01N 52°37' E 004°05'2 4.0
2017-Nov-19 03:30N 52°35' E 004°07'2 4.6
2017-Nov-19 03:00N 52°34' E 004°11'2 4.6
2017-Nov-19 02:30N 52°33' E 004°14'2 3.4
2017-Nov-19 02:00N 52°32' E 004°16'0 0.6
2017-Nov-19 01:26N 52°32' E 004°16'0 0.1
2017-Nov-19 00:53N 52°32' E 004°16'0 0.0
2017-Nov-19 00:29N 52°32' E 004°16'0 0.0
2017-Nov-18 23:59N 52°32' E 004°16'0 0.1
2017-Nov-18 23:29N 52°32' E 004°16'0 0.7
2017-Nov-18 23:00N 52°31' E 004°16'5 9.1
2017-Nov-18 22:30N 52°30' E 004°23'4 8.1
2017-Nov-18 22:01N 52°29' E 004°29'4 8.2
2017-Nov-18 21:30N 52°28' E 004°36'0 0.4
2017-Nov-18 21:00N 52°28' E 004°36'1 1.0
2017-Nov-18 20:31N 52°28' E 004°37'5 5.1
2017-Nov-18 19:28N 52°25' E 004°45'0 0.0
2017-Nov-18 18:58N 52°25' E 004°45'0 0.0
2017-Nov-18 18:28N 52°25' E 004°45'0 0.0
2017-Nov-18 17:55N 52°25' E 004°45'0 0.0
2017-Nov-18 17:28N 52°25' E 004°45'0 0.0
2017-Nov-18 16:54N 52°25' E 004°45'0 0.0
2017-Nov-18 16:18N 52°25' E 004°45'0 0.0
2017-Nov-18 15:54N 52°25' E 004°45'0 0.0
2017-Nov-18 15:30N 52°25' E 004°45'0 0.0
2017-Nov-18 14:45N 52°25' E 004°45'0 0.0
2017-Nov-18 13:51N 52°25' E 004°45'0 0.0
2017-Nov-18 13:27N 52°25' E 004°45'0 0.0
2017-Nov-18 13:00N 52°25' E 004°45'0 0.0
2017-Nov-18 12:30N 52°25' E 004°45'0 0.0
2017-Nov-18 11:57N 52°25' E 004°45'0 0.0
2017-Nov-18 11:30N 52°25' E 004°45'0 0.0
2017-Nov-18 10:48N 52°25' E 004°45'0 1.1
2017-Nov-18 10:30N 52°25' E 004°45'0 0.6
2017-Nov-18 09:59N 52°25' E 004°45'0 0.0
2017-Nov-18 09:14N 52°25' E 004°45'0 0.0
2017-Nov-18 08:56N 52°25' E 004°45'0 0.0
2017-Nov-18 08:29N 52°25' E 004°45'0 0.0
2017-Nov-18 07:29N 52°25' E 004°45'0 0.0
2017-Nov-18 06:59N 52°25' E 004°45'0 0.0
2017-Nov-18 06:29N 52°25' E 004°45'0 0.0
2017-Nov-18 05:59N 52°25' E 004°45'0 0.0
2017-Nov-18 05:29N 52°25' E 004°45'0 0.0
2017-Nov-18 04:59N 52°25' E 004°45'0 0.0
2017-Nov-18 04:26N 52°25' E 004°45'0 0.0
2017-Nov-18 03:50N 52°25' E 004°45'0 0.0
2017-Nov-18 03:29N 52°25' E 004°45'0 0.0
2017-Nov-18 01:59N 52°25' E 004°45'0 0.0
2017-Nov-18 01:26N 52°25' E 004°45'0 0.0
2017-Nov-18 00:56N 52°25' E 004°45'0 0.0
2017-Nov-18 00:20N 52°25' E 004°45'0 0.0
2017-Nov-17 23:44N 52°25' E 004°45'0 0.0
2017-Nov-17 23:17N 52°25' E 004°45'0 0.0
2017-Nov-17 22:50N 52°25' E 004°45'0 0.0
2017-Nov-17 22:20N 52°25' E 004°45'0 0.0
2017-Nov-17 21:56N 52°25' E 004°45'0 0.0
2017-Nov-17 21:26N 52°25' E 004°45'0 0.0
2017-Nov-17 20:56N 52°25' E 004°45'0 0.0
2017-Nov-17 20:29N 52°25' E 004°45'1 1.6
2017-Nov-17 20:01N 52°26' E 004°45'3 6.9
2017-Nov-17 19:30N 52°28' E 004°40'2 4.6
2017-Nov-17 19:00N 52°28' E 004°36'0 0.2
2017-Nov-17 18:31N 52°28' E 004°36'2 4.2
2017-Nov-17 18:00N 52°28' E 004°33'510.7
2017-Nov-17 17:30N 52°29' E 004°24'510.1
2017-Nov-17 17:00N 52°29' E 004°16'510.4
2017-Nov-17 16:30N 52°29' E 004°07'611.9
2017-Nov-17 16:00N 52°26' E 003°59'0 0.3
2017-Nov-17 14:34N 52°26' E 003°59'0 0.1
2017-Nov-17 14:28N 52°26' E 003°59'1 1.8
2017-Nov-17 14:00N 52°26' E 004°00'4 7.3
2017-Nov-17 13:30N 52°27' E 003°54'713.7
2017-Nov-17 13:00N 52°25' E 003°43'813.7
2017-Nov-17 12:26N 52°22' E 003°32'7211.6
2017-Nov-17 06:16N 51°29' E 002°14'310.5
2017-Nov-17 06:00N 51°26' E 002°13'510.8
2017-Nov-17 05:30N 51°21' E 002°09'510.9
2017-Nov-17 05:00N 51°16' E 002°06'5 9.9
2017-Nov-17 04:30N 51°12' E 002°01'510.6
2017-Nov-17 04:00N 51°10' E 001°54'1010.4
2017-Nov-17 03:00N 51°03' E 001°41'5 9.8
2017-Nov-17 02:30N 50°60' E 001°36'611.2
2017-Nov-17 02:00N 50°55' E 001°30'611.9
2017-Nov-17 01:30N 50°50' E 001°27'5211.4
2017-Nov-16 20:57N 50°22' E 000°18'613.9
2017-Nov-16 20:30N 50°21' E 000°08'714.5
2017-Nov-16 20:00N 50°19' W 000°03'815.0
2017-Nov-16 19:30N 50°17' W 000°14'1115.5
2017-Nov-16 18:46N 50°14' W 000°31'415.4
2017-Nov-16 18:30N 50°13' W 000°38'815.5
2017-Nov-16 18:00N 50°11' W 000°49'815.3
2017-Nov-16 17:31N 50°08' W 001°00'714.9
2017-Nov-16 17:00N 50°06' W 001°12'714.4
2017-Nov-16 16:30N 50°05' W 001°23'713.7
2017-Nov-16 16:00N 50°03' W 001°33'612.9
2017-Nov-16 15:31N 50°01' W 001°43'612.2
2017-Nov-16 15:00N 49°60' W 001°52'611.5
2017-Nov-16 14:30N 49°58' W 002°00'510.9
2017-Nov-16 14:00N 49°57' W 002°09'510.2
2017-Nov-16 13:30N 49°55' W 002°16'510.2
2017-Nov-16 13:00N 49°54' W 002°24'510.2
2017-Nov-16 12:29N 49°53' W 002°32'610.4
2017-Nov-16 11:54N 49°51' W 002°41'1411.0
2017-Nov-16 10:36N 49°48' W 003°03'211.6
2017-Nov-16 10:24N 49°48' W 003°06'511.7
2017-Nov-16 09:57N 49°47' W 003°14'511.9
2017-Nov-16 09:30N 49°46' W 003°22'612.1
2017-Nov-16 09:00N 49°46' W 003°32'912.2
2017-Nov-16 08:15N 49°45' W 003°46'2212.7
2017-Nov-16 06:31N 49°42' W 004°20'013.4
2017-Nov-16 06:29N 49°42' W 004°20'813.1
2017-Nov-16 05:53N 49°41' W 004°32'513.4
2017-Nov-16 05:30N 49°40' W 004°40'713.6
2017-Nov-16 04:59N 49°40' W 004°51'713.8
2017-Nov-16 04:29N 49°39' W 005°02'814.0
2017-Nov-16 03:54N 49°39' W 005°14'615.2
2017-Nov-16 03:30N 49°39' W 005°23'812.8
2017-Nov-16 02:55N 49°40' W 005°35'1312.8
2017-Nov-16 01:56N 49°48' W 005°50'612.2
2017-Nov-16 01:29N 49°52' W 005°55'611.5
2017-Nov-16 00:59N 49°57' W 006°00'911.3
2017-Nov-16 00:12N 50°06' W 006°01'311.5
2017-Nov-15 23:59N 50°08' W 006°01'2411.7
2017-Nov-15 21:54N 50°33' W 006°02'4 8.9
2017-Nov-15 21:24N 50°37' W 006°02'4 9.0
2017-Nov-15 21:00N 50°41' W 006°02'6 9.0
2017-Nov-15 20:20N 50°47' W 006°03'2511.7
2017-Nov-15 18:13N 51°11' W 005°58'3911.5
2017-Nov-15 14:51N 51°50' W 005°55'814.0
2017-Nov-15 14:15N 51°58' W 005°52'714.6
2017-Nov-15 13:47N 52°04' W 005°48'415.0
2017-Nov-15 13:30N 52°08' W 005°46'815.3
2017-Nov-15 13:01N 52°16' W 005°43'815.6
2017-Nov-15 12:29N 52°24' W 005°39'9112.8
2017-Nov-15 05:22N 53°53' W 005°15'412.4
2017-Nov-15 05:00N 53°58' W 005°14'612.8
2017-Nov-15 04:30N 54°04' W 005°14'613.0
2017-Nov-15 04:00N 54°11' W 005°14'713.2
2017-Nov-15 03:30N 54°17' W 005°13'713.1
2017-Nov-15 03:00N 54°24' W 005°12'612.6
2017-Nov-15 02:30N 54°30' W 005°12'612.4
2017-Nov-15 02:00N 54°36' W 005°14'611.8
2017-Nov-15 01:30N 54°42' W 005°16'611.4
2017-Nov-15 01:00N 54°47' W 005°19'611.3
2017-Nov-15 00:30N 54°53' W 005°21'510.7
2017-Nov-15 00:00N 54°58' W 005°21'611.5
2017-Nov-14 23:30N 55°04' W 005°19'612.3
2017-Nov-14 23:00N 55°10' W 005°18'1512.5
2017-Nov-14 21:47N 55°23' W 005°04'412.7
2017-Nov-14 21:30N 55°26' W 004°59'612.4
2017-Nov-14 21:00N 55°32' W 004°58'611.6
2017-Nov-14 20:30N 55°35' W 005°06'0 0.3
2017-Nov-14 19:44N 55°35' W 005°07'0 0.1
2017-Nov-14 19:20N 55°35' W 005°07'0 0.0
2017-Nov-14 18:56N 55°35' W 005°07'0 0.0
2017-Nov-14 18:26N 55°35' W 005°07'0 0.0
2017-Nov-14 17:38N 55°35' W 005°07'0 0.0
2017-Nov-14 17:23N 55°35' W 005°07'0 0.0
2017-Nov-14 16:44N 55°35' W 005°07'0 0.1
2017-Nov-14 16:29N 55°35' W 005°07'0 0.1
2017-Nov-14 15:56N 55°35' W 005°07'0 0.0
2017-Nov-14 15:29N 55°35' W 005°07'0 0.0
2017-Nov-14 14:56N 55°35' W 005°07'0 0.0
2017-Nov-14 14:26N 55°35' W 005°07'0 0.0
2017-Nov-14 13:23N 55°35' W 005°07'0 0.0
2017-Nov-14 12:59N 55°35' W 005°07'0 0.0
2017-Nov-14 12:14N 55°35' W 005°07'0 0.1
2017-Nov-14 11:59N 55°35' W 005°07'0 0.0
2017-Nov-14 11:29N 55°35' W 005°07'0 0.1
2017-Nov-14 10:59N 55°35' W 005°07'0 0.1
2017-Nov-14 10:17N 55°35' W 005°07'0 0.1
2017-Nov-14 09:29N 55°35' W 005°07'0 0.1
2017-Nov-14 08:17N 55°35' W 005°07'0 0.1
2017-Nov-14 07:23N 55°35' W 005°07'0 0.1
2017-Nov-14 06:50N 55°35' W 005°07'0 0.1
2017-Nov-14 06:20N 55°35' W 005°07'0 0.0
2017-Nov-14 05:50N 55°35' W 005°07'0 0.1
2017-Nov-14 05:23N 55°35' W 005°07'0 0.0
2017-Nov-14 04:47N 55°35' W 005°07'0 0.1
2017-Nov-14 04:26N 55°35' W 005°07'0 0.1
2017-Nov-14 03:56N 55°35' W 005°07'0 0.2
2017-Nov-14 03:23N 55°35' W 005°07'0 0.1
2017-Nov-14 02:59N 55°35' W 005°07'0 0.1
2017-Nov-14 02:29N 55°35' W 005°07'0 0.2
2017-Nov-14 01:56N 55°35' W 005°07'0 0.0
2017-Nov-14 01:23N 55°35' W 005°07'0 0.0
2017-Nov-14 00:56N 55°35' W 005°07'0 0.0
2017-Nov-14 00:26N 55°35' W 005°07'0 0.0
2017-Nov-13 23:59N 55°35' W 005°07'0 0.0
2017-Nov-13 23:29N 55°35' W 005°07'0 0.0
2017-Nov-13 22:59N 55°35' W 005°07'0 0.0
2017-Nov-13 22:29N 55°35' W 005°07'0 0.1
2017-Nov-13 21:56N 55°35' W 005°07'0 0.0
2017-Nov-13 01:38N 55°35' W 005°07'0 0.1
2017-Nov-13 01:23N 55°35' W 005°07'0 0.2
2017-Nov-13 00:47N 55°35' W 005°07'0 0.2
2017-Nov-13 00:20N 55°35' W 005°07'0 0.0
2017-Nov-12 23:38N 55°35' W 005°07'0 0.1
2017-Nov-12 23:20N 55°35' W 005°07'0 0.0
2017-Nov-12 22:53N 55°35' W 005°07'0 0.0
2017-Nov-12 22:23N 55°35' W 005°07'0 0.0
2017-Nov-12 21:56N 55°35' W 005°07'0 0.0
2017-Nov-12 20:23N 55°35' W 005°07'0 0.0
2017-Nov-12 19:56N 55°35' W 005°07'0 0.1
2017-Nov-12 19:29N 55°35' W 005°07'0 0.0
2017-Nov-12 16:17N 55°35' W 005°07'0 0.0
2017-Nov-12 15:47N 55°35' W 005°07'0 0.1
2017-Nov-12 15:29N 55°35' W 005°07'0 0.0
2017-Nov-12 14:59N 55°35' W 005°07'0 0.0
2017-Nov-12 14:20N 55°35' W 005°07'0 0.0
2017-Nov-12 13:50N 55°35' W 005°07'0 0.0
2017-Nov-12 13:29N 55°35' W 005°07'0 0.0
2017-Nov-12 12:35N 55°35' W 005°07'0 0.0
2017-Nov-12 11:35N 55°35' W 005°07'0 0.1
2017-Nov-12 11:23N 55°35' W 005°07'0 0.0
2017-Nov-12 10:53N 55°35' W 005°07'0 0.0
2017-Nov-12 10:20N 55°35' W 005°07'0 0.0
2017-Nov-12 09:53N 55°35' W 005°07'0 0.0
2017-Nov-12 09:08N 55°35' W 005°07'0 0.1
2017-Nov-12 08:53N 55°35' W 005°07'0 0.1
2017-Nov-12 08:26N 55°35' W 005°07'0 0.1
2017-Nov-12 07:56N 55°35' W 005°07'0 0.0
2017-Nov-12 07:23N 55°35' W 005°07'0 0.0
2017-Nov-12 06:56N 55°35' W 005°07'0 0.1
2017-Nov-12 06:26N 55°35' W 005°07'0 0.0
2017-Nov-12 05:53N 55°35' W 005°07'0 0.1
2017-Nov-12 05:29N 55°35' W 005°07'0 0.0
2017-Nov-12 04:59N 55°35' W 005°07'0 0.0
2017-Nov-12 04:29N 55°35' W 005°07'0 0.0
2017-Nov-12 03:59N 55°35' W 005°07'0 0.0
2017-Nov-12 03:29N 55°35' W 005°07'0 0.0
2017-Nov-12 02:59N 55°35' W 005°07'0 0.0
2017-Nov-12 02:26N 55°35' W 005°07'0 0.0
2017-Nov-12 01:59N 55°35' W 005°07'0 0.1
2017-Nov-12 01:29N 55°35' W 005°07'0 0.1
2017-Nov-12 00:47N 55°35' W 005°07'0 0.2
2017-Nov-12 00:14N 55°35' W 005°07'0 0.2
2017-Nov-11 23:59N 55°35' W 005°07'0 0.2
2017-Nov-11 23:29N 55°35' W 005°07'0 0.2
2017-Nov-11 22:50N 55°35' W 005°07'0 0.0
2017-Nov-11 22:20N 55°35' W 005°07'0 0.0
2017-Nov-11 21:35N 55°35' W 005°07'0 0.4
2017-Nov-11 21:23N 55°35' W 005°07'0 0.1
2017-Nov-11 20:53N 55°35' W 005°07'0 0.0
2017-Nov-11 20:20N 55°35' W 005°07'0 0.0
2017-Nov-11 19:50N 55°35' W 005°07'0 0.1
2017-Nov-11 19:20N 55°35' W 005°07'0 0.1
2017-Nov-11 18:50N 55°35' W 005°07'0 0.2
2017-Nov-11 18:26N 55°35' W 005°07'0 0.1
2017-Nov-11 17:53N 55°35' W 005°07'0 0.2
2017-Nov-11 17:26N 55°35' W 005°07'0 0.0
2017-Nov-11 16:56N 55°35' W 005°07'0 0.1
2017-Nov-11 16:08N 55°35' W 005°07'0 0.1
2017-Nov-11 14:29N 55°35' W 005°07'0 0.1
2017-Nov-11 13:59N 55°35' W 005°07'0 0.1
2017-Nov-11 13:29N 55°35' W 005°07'0 0.3
2017-Nov-11 12:56N 55°35' W 005°07'0 0.0
2017-Nov-11 10:43N 55°35' W 005°07'0 1.4
2017-Nov-11 10:30N 55°36' W 005°07'4 8.7
2017-Nov-11 10:00N 55°39' W 005°03'612.9
2017-Nov-11 09:30N 55°45' W 004°59'510.9
2017-Nov-11 09:00N 55°51' W 005°00'  
Track history (hours):
 
Tides and Currents Weather Stations Pressure Air Temp Water Temp Dewpoint Dewpoint Depression Visibility Wind Speed Wind Dir Waves Ship Positions

Maersk Edward

Last reported at 2017-Nov-19 08:16 UTC. Time now 2017-Nov-20 23:09 UTC.
Position N 52°46' E 003°51'.

Length 186 m; draft 6.6 m.

Type: Tanker. MMSI: 219571000.

Date/timePositionNaut miles runAvg speedWind from/ knotsBaromVisibWave heightAir tempDewpointWater temp
2017-Nov-19 08:16N 52°46' E 003°51'1 2.7
2017-Nov-19 07:58N 52°46' E 003°52'1 2.6
2017-Nov-19 07:29N 52°45' E 003°53'1 2.4
2017-Nov-19 06:58N 52°44' E 003°54'1 2.3
2017-Nov-19 06:29N 52°43' E 003°56'2 3.1
2017-Nov-19 06:00N 52°42' E 003°57'2 3.5
2017-Nov-19 05:30N 52°41' E 003°59'2 4.0
2017-Nov-19 05:00N 52°39' E 004°01'2 3.4
2017-Nov-19 04:30N 52°38' E 004°03'2 3.4
2017-Nov-19 04:01N 52°37' E 004°05'2 4.0
2017-Nov-19 03:30N 52°35' E 004°07'2 4.6
2017-Nov-19 03:00N 52°34' E 004°11'2 4.6
2017-Nov-19 02:30N 52°33' E 004°14'2 3.4
2017-Nov-19 02:00N 52°32' E 004°16'0 0.6
2017-Nov-19 01:26N 52°32' E 004°16'0 0.1
2017-Nov-19 00:53N 52°32' E 004°16'0 0.0
2017-Nov-19 00:29N 52°32' E 004°16'0 0.0
2017-Nov-18 23:59N 52°32' E 004°16'0 0.1
2017-Nov-18 23:29N 52°32' E 004°16'0 0.7
2017-Nov-18 23:00N 52°31' E 004°16'5 9.1
2017-Nov-18 22:30N 52°30' E 004°23'4 8.1
2017-Nov-18 22:01N 52°29' E 004°29'4 8.2
2017-Nov-18 21:30N 52°28' E 004°36'0 0.4
2017-Nov-18 21:00N 52°28' E 004°36'1 1.0
2017-Nov-18 20:31N 52°28' E 004°37'5 5.1
2017-Nov-18 19:28N 52°25' E 004°45'0 0.0
2017-Nov-18 18:58N 52°25' E 004°45'0 0.0
2017-Nov-18 18:28N 52°25' E 004°45'0 0.0
2017-Nov-18 17:55N 52°25' E 004°45'0 0.0
2017-Nov-18 17:28N 52°25' E 004°45'0 0.0
2017-Nov-18 16:54N 52°25' E 004°45'0 0.0
2017-Nov-18 16:18N 52°25' E 004°45'0 0.0
2017-Nov-18 15:54N 52°25' E 004°45'0 0.0
2017-Nov-18 15:30N 52°25' E 004°45'0 0.0
2017-Nov-18 14:45N 52°25' E 004°45'0 0.0
2017-Nov-18 13:51N 52°25' E 004°45'0 0.0
2017-Nov-18 13:27N 52°25' E 004°45'0 0.0
2017-Nov-18 13:00N 52°25' E 004°45'0 0.0
2017-Nov-18 12:30N 52°25' E 004°45'0 0.0
2017-Nov-18 11:57N 52°25' E 004°45'0 0.0
2017-Nov-18 11:30N 52°25' E 004°45'0 0.0
2017-Nov-18 10:48N 52°25' E 004°45'0 1.1
2017-Nov-18 10:30N 52°25' E 004°45'0 0.6
2017-Nov-18 09:59N 52°25' E 004°45'0 0.0
2017-Nov-18 09:14N 52°25' E 004°45'0 0.0
2017-Nov-18 08:56N 52°25' E 004°45'0 0.0
2017-Nov-18 08:29N 52°25' E 004°45'0 0.0
2017-Nov-18 07:29N 52°25' E 004°45'0 0.0
2017-Nov-18 06:59N 52°25' E 004°45'0 0.0
2017-Nov-18 06:29N 52°25' E 004°45'0 0.0
2017-Nov-18 05:59N 52°25' E 004°45'0 0.0
2017-Nov-18 05:29N 52°25' E 004°45'0 0.0
2017-Nov-18 04:59N 52°25' E 004°45'0 0.0
2017-Nov-18 04:26N 52°25' E 004°45'0 0.0
2017-Nov-18 03:50N 52°25' E 004°45'0 0.0
2017-Nov-18 03:29N 52°25' E 004°45'0 0.0
2017-Nov-18 01:59N 52°25' E 004°45'0 0.0
2017-Nov-18 01:26N 52°25' E 004°45'0 0.0
2017-Nov-18 00:56N 52°25' E 004°45'0 0.0
2017-Nov-18 00:20N 52°25' E 004°45'0 0.0
2017-Nov-17 23:44N 52°25' E 004°45'0 0.0
2017-Nov-17 23:17N 52°25' E 004°45'0 0.0
2017-Nov-17 22:50N 52°25' E 004°45'0 0.0
2017-Nov-17 22:20N 52°25' E 004°45'0 0.0
2017-Nov-17 21:56N 52°25' E 004°45'0 0.0
2017-Nov-17 21:26N 52°25' E 004°45'0 0.0
2017-Nov-17 20:56N 52°25' E 004°45'0 0.0
2017-Nov-17 20:29N 52°25' E 004°45'1 1.6
2017-Nov-17 20:01N 52°26' E 004°45'3 6.9
2017-Nov-17 19:30N 52°28' E 004°40'2 4.6
2017-Nov-17 19:00N 52°28' E 004°36'0 0.2
2017-Nov-17 18:31N 52°28' E 004°36'2 4.2
2017-Nov-17 18:00N 52°28' E 004°33'510.7
2017-Nov-17 17:30N 52°29' E 004°24'510.1
2017-Nov-17 17:00N 52°29' E 004°16'510.4
2017-Nov-17 16:30N 52°29' E 004°07'611.9
2017-Nov-17 16:00N 52°26' E 003°59'0 0.3
2017-Nov-17 14:34N 52°26' E 003°59'0 0.1
2017-Nov-17 14:28N 52°26' E 003°59'1 1.8
2017-Nov-17 14:00N 52°26' E 004°00'4 7.3
2017-Nov-17 13:30N 52°27' E 003°54'713.7
2017-Nov-17 13:00N 52°25' E 003°43'813.7
2017-Nov-17 12:26N 52°22' E 003°32'7211.6
2017-Nov-17 06:16N 51°29' E 002°14'310.5
2017-Nov-17 06:00N 51°26' E 002°13'510.8
2017-Nov-17 05:30N 51°21' E 002°09'510.9
2017-Nov-17 05:00N 51°16' E 002°06'5 9.9
2017-Nov-17 04:30N 51°12' E 002°01'510.6
2017-Nov-17 04:00N 51°10' E 001°54'1010.4
2017-Nov-17 03:00N 51°03' E 001°41'5 9.8
2017-Nov-17 02:30N 50°60' E 001°36'611.2
2017-Nov-17 02:00N 50°55' E 001°30'611.9
2017-Nov-17 01:30N 50°50' E 001°27'5211.4
2017-Nov-16 20:57N 50°22' E 000°18'613.9
2017-Nov-16 20:30N 50°21' E 000°08'714.5
2017-Nov-16 20:00N 50°19' W 000°03'815.0
2017-Nov-16 19:30N 50°17' W 000°14'1115.5
2017-Nov-16 18:46N 50°14' W 000°31'415.4
2017-Nov-16 18:30N 50°13' W 000°38'815.5
2017-Nov-16 18:00N 50°11' W 000°49'815.3
2017-Nov-16 17:31N 50°08' W 001°00'714.9
2017-Nov-16 17:00N 50°06' W 001°12'714.4
2017-Nov-16 16:30N 50°05' W 001°23'713.7
2017-Nov-16 16:00N 50°03' W 001°33'612.9
2017-Nov-16 15:31N 50°01' W 001°43'612.2
2017-Nov-16 15:00N 49°60' W 001°52'611.5
2017-Nov-16 14:30N 49°58' W 002°00'510.9
2017-Nov-16 14:00N 49°57' W 002°09'510.2
2017-Nov-16 13:30N 49°55' W 002°16'510.2
2017-Nov-16 13:00N 49°54' W 002°24'510.2
2017-Nov-16 12:29N 49°53' W 002°32'610.4
2017-Nov-16 11:54N 49°51' W 002°41'1411.0
2017-Nov-16 10:36N 49°48' W 003°03'211.6
2017-Nov-16 10:24N 49°48' W 003°06'511.7
2017-Nov-16 09:57N 49°47' W 003°14'511.9
2017-Nov-16 09:30N 49°46' W 003°22'612.1
2017-Nov-16 09:00N 49°46' W 003°32'912.2
2017-Nov-16 08:15N 49°45' W 003°46'2212.7
2017-Nov-16 06:31N 49°42' W 004°20'013.4
2017-Nov-16 06:29N 49°42' W 004°20'813.1
2017-Nov-16 05:53N 49°41' W 004°32'513.4
2017-Nov-16 05:30N 49°40' W 004°40'713.6
2017-Nov-16 04:59N 49°40' W 004°51'713.8
2017-Nov-16 04:29N 49°39' W 005°02'814.0
2017-Nov-16 03:54N 49°39' W 005°14'615.2
2017-Nov-16 03:30N 49°39' W 005°23'812.8
2017-Nov-16 02:55N 49°40' W 005°35'1312.8
2017-Nov-16 01:56N 49°48' W 005°50'612.2
2017-Nov-16 01:29N 49°52' W 005°55'611.5
2017-Nov-16 00:59N 49°57' W 006°00'911.3
2017-Nov-16 00:12N 50°06' W 006°01'311.5
2017-Nov-15 23:59N 50°08' W 006°01'2411.7
2017-Nov-15 21:54N 50°33' W 006°02'4 8.9
2017-Nov-15 21:24N 50°37' W 006°02'4 9.0
2017-Nov-15 21:00N 50°41' W 006°02'6 9.0
2017-Nov-15 20:20N 50°47' W 006°03'2511.7
2017-Nov-15 18:13N 51°11' W 005°58'3911.5
2017-Nov-15 14:51N 51°50' W 005°55'814.0
2017-Nov-15 14:15N 51°58' W 005°52'714.6
2017-Nov-15 13:47N 52°04' W 005°48'415.0
2017-Nov-15 13:30N 52°08' W 005°46'815.3
2017-Nov-15 13:01N 52°16' W 005°43'815.6
2017-Nov-15 12:29N 52°24' W 005°39'9112.8
2017-Nov-15 05:22N 53°53' W 005°15'412.4
2017-Nov-15 05:00N 53°58' W 005°14'612.8
2017-Nov-15 04:30N 54°04' W 005°14'613.0
2017-Nov-15 04:00N 54°11' W 005°14'713.2
2017-Nov-15 03:30N 54°17' W 005°13'713.1
2017-Nov-15 03:00N 54°24' W 005°12'612.6
2017-Nov-15 02:30N 54°30' W 005°12'612.4
2017-Nov-15 02:00N 54°36' W 005°14'611.8
2017-Nov-15 01:30N 54°42' W 005°16'611.4
2017-Nov-15 01:00N 54°47' W 005°19'611.3
2017-Nov-15 00:30N 54°53' W 005°21'510.7
2017-Nov-15 00:00N 54°58' W 005°21'611.5
2017-Nov-14 23:30N 55°04' W 005°19'612.3
2017-Nov-14 23:00N 55°10' W 005°18'1512.5
2017-Nov-14 21:47N 55°23' W 005°04'412.7
2017-Nov-14 21:30N 55°26' W 004°59'612.4
2017-Nov-14 21:00N 55°32' W 004°58'611.6
2017-Nov-14 20:30N 55°35' W 005°06'0 0.3
2017-Nov-14 19:44N 55°35' W 005°07'0 0.1
2017-Nov-14 19:20N 55°35' W 005°07'0 0.0
2017-Nov-14 18:56N 55°35' W 005°07'0 0.0
2017-Nov-14 18:26N 55°35' W 005°07'0 0.0
2017-Nov-14 17:38N 55°35' W 005°07'0 0.0
2017-Nov-14 17:23N 55°35' W 005°07'0 0.0
2017-Nov-14 16:44N 55°35' W 005°07'0 0.1
2017-Nov-14 16:29N 55°35' W 005°07'0 0.1
2017-Nov-14 15:56N 55°35' W 005°07'0 0.0
2017-Nov-14 15:29N 55°35' W 005°07'0 0.0
2017-Nov-14 14:56N 55°35' W 005°07'0 0.0
2017-Nov-14 14:26N 55°35' W 005°07'0 0.0
2017-Nov-14 13:23N 55°35' W 005°07'0 0.0
2017-Nov-14 12:59N 55°35' W 005°07'0 0.0
2017-Nov-14 12:14N 55°35' W 005°07'0 0.1
2017-Nov-14 11:59N 55°35' W 005°07'0 0.0
2017-Nov-14 11:29N 55°35' W 005°07'0 0.1
2017-Nov-14 10:59N 55°35' W 005°07'0 0.1
2017-Nov-14 10:17N 55°35' W 005°07'0 0.1
2017-Nov-14 09:29N 55°35' W 005°07'0 0.1
2017-Nov-14 08:17N 55°35' W 005°07'0 0.1
2017-Nov-14 07:23N 55°35' W 005°07'0 0.1
2017-Nov-14 06:50N 55°35' W 005°07'0 0.1
2017-Nov-14 06:20N 55°35' W 005°07'0 0.0
2017-Nov-14 05:50N 55°35' W 005°07'0 0.1
2017-Nov-14 05:23N 55°35' W 005°07'0 0.0
2017-Nov-14 04:47N 55°35' W 005°07'0 0.1
2017-Nov-14 04:26N 55°35' W 005°07'0 0.1
2017-Nov-14 03:56N 55°35' W 005°07'0 0.2
2017-Nov-14 03:23N 55°35' W 005°07'0 0.1
2017-Nov-14 02:59N 55°35' W 005°07'0 0.1
2017-Nov-14 02:29N 55°35' W 005°07'0 0.2
2017-Nov-14 01:56N 55°35' W 005°07'0 0.0
2017-Nov-14 01:23N 55°35' W 005°07'0 0.0
2017-Nov-14 00:56N 55°35' W 005°07'0 0.0
2017-Nov-14 00:26N 55°35' W 005°07'0 0.0
2017-Nov-13 23:59N 55°35' W 005°07'0 0.0
2017-Nov-13 23:29N 55°35' W 005°07'0 0.0
2017-Nov-13 22:59N 55°35' W 005°07'0 0.0
2017-Nov-13 22:29N 55°35' W 005°07'0 0.1
2017-Nov-13 21:56N 55°35' W 005°07'0 0.0
2017-Nov-13 01:38N 55°35' W 005°07'0 0.1
2017-Nov-13 01:23N 55°35' W 005°07'0 0.2
2017-Nov-13 00:47N 55°35' W 005°07'0 0.2
2017-Nov-13 00:20N 55°35' W 005°07'0 0.0
2017-Nov-12 23:38N 55°35' W 005°07'0 0.1
2017-Nov-12 23:20N 55°35' W 005°07'0 0.0
2017-Nov-12 22:53N 55°35' W 005°07'0 0.0
2017-Nov-12 22:23N 55°35' W 005°07'0 0.0
2017-Nov-12 21:56N 55°35' W 005°07'0 0.0
2017-Nov-12 20:23N 55°35' W 005°07'0 0.0
2017-Nov-12 19:56N 55°35' W 005°07'0 0.1
2017-Nov-12 19:29N 55°35' W 005°07'0 0.0
2017-Nov-12 16:17N 55°35' W 005°07'0 0.0
2017-Nov-12 15:47N 55°35' W 005°07'0 0.1
2017-Nov-12 15:29N 55°35' W 005°07'0 0.0
2017-Nov-12 14:59N 55°35' W 005°07'0 0.0
2017-Nov-12 14:20N 55°35' W 005°07'0 0.0
2017-Nov-12 13:50N 55°35' W 005°07'0 0.0
2017-Nov-12 13:29N 55°35' W 005°07'0 0.0
2017-Nov-12 12:35N 55°35' W 005°07'0 0.0
2017-Nov-12 11:35N 55°35' W 005°07'0 0.1
2017-Nov-12 11:23N 55°35' W 005°07'0 0.0
2017-Nov-12 10:53N 55°35' W 005°07'0 0.0
2017-Nov-12 10:20N 55°35' W 005°07'0 0.0
2017-Nov-12 09:53N 55°35' W 005°07'0 0.0
2017-Nov-12 09:08N 55°35' W 005°07'0 0.1
2017-Nov-12 08:53N 55°35' W 005°07'0 0.1
2017-Nov-12 08:26N 55°35' W 005°07'0 0.1
2017-Nov-12 07:56N 55°35' W 005°07'0 0.0
2017-Nov-12 07:23N 55°35' W 005°07'0 0.0
2017-Nov-12 06:56N 55°35' W 005°07'0 0.1
2017-Nov-12 06:26N 55°35' W 005°07'0 0.0
2017-Nov-12 05:53N 55°35' W 005°07'0 0.1
2017-Nov-12 05:29N 55°35' W 005°07'0 0.0
2017-Nov-12 04:59N 55°35' W 005°07'0 0.0
2017-Nov-12 04:29N 55°35' W 005°07'0 0.0
2017-Nov-12 03:59N 55°35' W 005°07'0 0.0
2017-Nov-12 03:29N 55°35' W 005°07'0 0.0
2017-Nov-12 02:59N 55°35' W 005°07'0 0.0
2017-Nov-12 02:26N 55°35' W 005°07'0 0.0
2017-Nov-12 01:59N 55°35' W 005°07'0 0.1
2017-Nov-12 01:29N 55°35' W 005°07'0 0.1
2017-Nov-12 00:47N 55°35' W 005°07'0 0.2
2017-Nov-12 00:14N 55°35' W 005°07'0 0.2
2017-Nov-11 23:59N 55°35' W 005°07'0 0.2
2017-Nov-11 23:29N 55°35' W 005°07'0 0.2
2017-Nov-11 22:50N 55°35' W 005°07'0 0.0
2017-Nov-11 22:20N 55°35' W 005°07'0 0.0
2017-Nov-11 21:35N 55°35' W 005°07'0 0.4
2017-Nov-11 21:23N 55°35' W 005°07'0 0.1
2017-Nov-11 20:53N 55°35' W 005°07'0 0.0
2017-Nov-11 20:20N 55°35' W 005°07'0 0.0
2017-Nov-11 19:50N 55°35' W 005°07'0 0.1
2017-Nov-11 19:20N 55°35' W 005°07'0 0.1
2017-Nov-11 18:50N 55°35' W 005°07'0 0.2
2017-Nov-11 18:26N 55°35' W 005°07'0 0.1
2017-Nov-11 17:53N 55°35' W 005°07'0 0.2
2017-Nov-11 17:26N 55°35' W 005°07'0 0.0
2017-Nov-11 16:56N 55°35' W 005°07'0 0.1
2017-Nov-11 16:08N 55°35' W 005°07'0 0.1
2017-Nov-11 14:29N 55°35' W 005°07'0 0.1
2017-Nov-11 13:59N 55°35' W 005°07'0 0.1
2017-Nov-11 13:29N 55°35' W 005°07'0 0.3
2017-Nov-11 12:56N 55°35' W 005°07'0 0.0
2017-Nov-11 10:43N 55°35' W 005°07'0 1.4
2017-Nov-11 10:30N 55°36' W 005°07'4 8.7
2017-Nov-11 10:00N 55°39' W 005°03'612.9
2017-Nov-11 09:30N 55°45' W 004°59'510.9
2017-Nov-11 09:00N 55°51' W 005°00'  

Dump ship's entire track history